createdAt,value
2023-03-05T00:02:05.840Z,20.95
2023-03-05T00:07:12.331Z,20.91
2023-03-05T00:12:15.309Z,20.91
2023-03-05T00:17:18.102Z,20.88
2023-03-05T00:22:22.221Z,20.88
2023-03-05T00:27:24.943Z,20.86
2023-03-05T00:32:27.910Z,20.86
2023-03-05T00:37:32.284Z,20.82
2023-03-05T00:42:38.567Z,20.80
2023-03-05T00:47:41.387Z,20.78
2023-03-05T00:52:45.553Z,20.81
2023-03-05T00:57:48.374Z,20.77
2023-03-05T01:02:51.242Z,20.79
2023-03-05T01:07:55.527Z,20.71
2023-03-05T01:12:58.499Z,20.68
2023-03-05T01:18:01.281Z,20.67
2023-03-05T01:23:05.477Z,20.64
2023-03-05T01:28:08.446Z,20.62
2023-03-05T01:33:11.236Z,20.61
2023-03-05T01:38:15.349Z,20.58
2023-03-05T01:43:24.275Z,20.58
2023-03-05T01:48:27.125Z,20.52
2023-03-05T01:53:31.242Z,20.48
2023-03-05T01:58:34.024Z,20.44
2023-03-05T02:03:36.791Z,20.42
2023-03-05T02:08:40.934Z,20.34
2023-03-05T02:13:43.669Z,20.32
2023-03-05T02:18:46.415Z,20.22
2023-03-05T02:23:50.569Z,20.24
2023-03-05T02:28:54.665Z,20.25
2023-03-05T02:33:57.539Z,20.23
2023-03-05T02:39:02.611Z,20.17
2023-03-05T02:44:05.834Z,20.15
2023-03-05T02:49:08.731Z,20.10
2023-03-05T02:54:13.149Z,20.05
2023-03-05T02:59:16.324Z,20.00
2023-03-05T03:04:19.144Z,19.95
2023-03-05T03:09:23.299Z,19.86
2023-03-05T03:14:26.018Z,19.83
2023-03-05T03:19:28.753Z,19.76
2023-03-05T03:24:33.271Z,19.68
2023-03-05T03:29:36.045Z,19.67
2023-03-05T03:34:38.805Z,19.62
2023-03-05T03:39:42.959Z,19.55
2023-03-05T03:44:45.710Z,19.48
2023-03-05T03:49:48.475Z,19.44
2023-03-05T03:54:53.640Z,19.37
2023-03-05T03:59:56.409Z,19.33
2023-03-05T04:04:59.161Z,19.24
2023-03-05T04:10:03.427Z,19.22
2023-03-05T04:15:09.596Z,19.20
2023-03-05T04:20:13.512Z,19.15
2023-03-05T04:25:17.756Z,19.12
2023-03-05T04:30:20.749Z,19.10
2023-03-05T04:35:23.514Z,19.08
2023-03-05T04:40:27.687Z,19.06
2023-03-05T04:45:30.496Z,19.05
2023-03-05T04:50:33.367Z,19.04
2023-03-05T04:55:37.486Z,19.01
2023-03-05T05:00:40.233Z,18.99
2023-03-05T05:05:42.977Z,18.97
2023-03-05T05:10:47.177Z,18.96
2023-03-05T05:15:49.947Z,18.95
2023-03-05T05:20:52.926Z,18.93
2023-03-05T05:26:00.437Z,18.90
2023-03-05T05:31:08.189Z,18.91
2023-03-05T05:36:13.355Z,18.92
2023-03-05T05:41:18.668Z,18.90
2023-03-05T05:46:21.688Z,18.86
2023-03-05T05:51:25.067Z,18.85
2023-03-05T05:56:29.162Z,18.81
2023-03-05T06:01:32.599Z,18.78
2023-03-05T06:06:35.649Z,18.78
2023-03-05T06:11:39.794Z,18.76
2023-03-05T06:16:42.618Z,18.76
2023-03-05T06:21:45.505Z,18.73
2023-03-05T06:26:49.615Z,18.72
2023-03-05T06:31:52.421Z,18.71
2023-03-05T06:36:55.224Z,18.69
2023-03-05T06:41:59.422Z,18.69
2023-03-05T06:47:02.172Z,18.70
2023-03-05T06:52:05.228Z,18.69
2023-03-05T06:57:10.443Z,18.68
2023-03-05T07:02:13.585Z,18.67
2023-03-05T07:07:16.375Z,18.65
2023-03-05T07:12:20.511Z,18.68
2023-03-05T07:17:23.298Z,18.65
2023-03-05T07:22:26.119Z,18.61
2023-03-05T07:27:30.240Z,18.64
2023-03-05T07:32:33.453Z,18.64
2023-03-05T07:37:36.437Z,18.66
2023-03-05T07:42:40.696Z,18.64
2023-03-05T07:47:52.270Z,18.60
2023-03-05T07:52:55.331Z,18.64
2023-03-05T07:57:59.440Z,18.65
2023-03-05T08:03:02.371Z,18.63
2023-03-05T08:08:05.291Z,13.77
2023-03-05T08:13:09.455Z,14.44
2023-03-05T08:18:13.729Z,16.51
2023-03-05T08:23:16.736Z,17.44
2023-03-05T08:28:21.125Z,18.04
2023-03-05T08:33:23.854Z,18.42
2023-03-05T08:38:26.905Z,18.71
2023-03-05T08:43:31.359Z,18.92
2023-03-05T08:48:34.488Z,19.13
2023-03-05T08:53:37.373Z,19.27
2023-03-05T08:58:41.782Z,19.41
2023-03-05T09:03:44.568Z,19.53
2023-03-05T09:08:47.333Z,19.61
2023-03-05T09:13:51.548Z,19.73
2023-03-05T09:18:54.349Z,19.81
2023-03-05T09:23:59.859Z,19.87
2023-03-05T09:29:04.248Z,19.93
2023-03-05T09:34:08.334Z,20.06
2023-03-05T09:39:11.231Z,20.12
2023-03-05T09:44:24.162Z,20.16
2023-03-05T09:49:33.757Z,20.23
2023-03-05T09:54:38.910Z,20.31
2023-03-05T09:59:45.657Z,20.31
2023-03-05T10:04:50.073Z,20.31
2023-03-05T10:09:56.104Z,20.35
2023-03-05T10:15:00.738Z,20.43
2023-03-05T10:20:11.825Z,20.53
2023-03-05T10:25:20.117Z,20.64
2023-03-05T10:30:40.157Z,20.74
2023-03-05T10:35:54.669Z,20.77
2023-03-05T10:40:57.934Z,20.72
2023-03-05T10:46:02.197Z,20.75
2023-03-05T10:51:06.424Z,20.78
2023-03-05T10:56:11.227Z,20.82
2023-03-05T11:01:25.490Z,20.85
2023-03-05T11:06:36.682Z,20.90
2023-03-05T11:11:39.726Z,20.97
2023-03-05T11:16:48.986Z,21.10
2023-03-05T11:22:06.840Z,21.20
2023-03-05T11:27:23.733Z,21.27
2023-03-05T11:32:28.680Z,21.34
2023-03-05T11:37:32.157Z,21.39
2023-03-05T11:42:35.000Z,21.44
2023-03-05T11:47:43.500Z,21.45
2023-03-05T11:52:47.018Z,21.48
2023-03-05T11:57:52.120Z,21.52
2023-03-05T12:02:57.108Z,21.57
2023-03-05T12:08:01.251Z,21.53
2023-03-05T12:13:06.121Z,21.54
2023-03-05T12:18:16.373Z,21.54
2023-03-05T12:23:20.912Z,21.52
2023-03-05T12:28:54.715Z,21.51
2023-03-05T12:33:58.863Z,21.51
2023-03-05T12:39:01.642Z,21.56
2023-03-05T12:44:11.309Z,21.64
2023-03-05T12:49:31.117Z,21.61
2023-03-05T12:54:34.442Z,21.62
2023-03-05T12:59:41.689Z,21.62
2023-03-05T13:04:46.188Z,21.64
2023-03-05T13:09:55.732Z,21.68
2023-03-05T13:15:00.490Z,21.71
2023-03-05T13:20:23.623Z,21.74
2023-03-05T13:25:26.876Z,21.77
2023-03-05T13:30:29.871Z,21.79
2023-03-05T13:35:34.131Z,21.82
2023-03-05T13:40:38.015Z,21.88
2023-03-05T13:45:41.090Z,21.91
2023-03-05T13:50:45.396Z,21.94
2023-03-05T13:55:48.224Z,21.97
2023-03-05T14:00:51.147Z,21.96
2023-03-05T14:05:55.345Z,21.99
2023-03-05T14:10:58.949Z,22.02
2023-03-05T14:16:05.986Z,22.07
2023-03-05T14:21:11.016Z,22.13
2023-03-05T14:26:34.387Z,22.11
2023-03-05T14:31:39.935Z,22.08
2023-03-05T14:36:47.671Z,22.10
2023-03-05T14:41:50.435Z,22.14
2023-03-05T14:46:54.317Z,22.18
2023-03-05T14:51:58.605Z,22.23
2023-03-05T14:57:01.333Z,22.25
2023-03-05T15:02:04.142Z,22.23
2023-03-05T15:07:08.941Z,22.23
2023-03-05T15:12:12.733Z,22.22
2023-03-05T15:17:20.245Z,22.20
2023-03-05T15:22:24.560Z,22.20
2023-03-05T15:27:27.525Z,22.22
2023-03-05T15:32:30.743Z,22.21
2023-03-05T15:37:34.960Z,22.24
2023-03-05T15:42:37.878Z,22.20
2023-03-05T15:47:40.722Z,22.25
2023-03-05T15:52:44.973Z,22.21
2023-03-05T15:57:48.692Z,22.26
2023-03-05T16:02:51.519Z,22.28
2023-03-05T16:07:55.678Z,22.32
2023-03-05T16:13:00.573Z,22.36
2023-03-05T16:18:05.174Z,22.40
2023-03-05T16:23:09.486Z,22.44
2023-03-05T16:28:12.264Z,22.46
2023-03-05T16:33:15.096Z,22.50
2023-03-05T16:38:19.480Z,22.52
2023-03-05T16:43:22.380Z,22.55
2023-03-05T16:48:25.510Z,22.58
2023-03-05T16:53:29.656Z,22.60
2023-03-05T16:58:33.087Z,22.64
2023-03-05T17:03:38.878Z,22.67
2023-03-05T17:08:43.364Z,22.69
2023-03-05T17:13:48.796Z,22.67
2023-03-05T17:18:51.981Z,22.69
2023-03-05T17:23:56.688Z,22.64
2023-03-05T17:28:59.784Z,22.63
2023-03-05T17:34:02.660Z,22.62
2023-03-05T17:39:06.997Z,22.57
2023-03-05T17:44:10.034Z,22.52
2023-03-05T17:49:12.786Z,22.46
2023-03-05T17:54:16.926Z,22.37
2023-03-05T17:59:19.797Z,22.33
2023-03-05T18:04:22.594Z,22.27
2023-03-05T18:09:27.239Z,22.23
2023-03-05T18:14:30.077Z,22.19
2023-03-05T18:19:32.859Z,22.13
2023-03-05T18:24:37.082Z,22.10
2023-03-05T18:29:39.852Z,22.07
2023-03-05T18:34:42.588Z,21.98
2023-03-05T18:39:46.804Z,21.99
2023-03-05T18:44:49.623Z,21.94
2023-03-05T18:49:53.147Z,21.91
2023-03-05T18:54:57.280Z,21.85
2023-03-05T19:00:00.016Z,21.83
2023-03-05T19:05:03.018Z,22.00
2023-03-05T19:10:09.775Z,22.09
2023-03-05T19:15:13.024Z,22.12
2023-03-05T19:20:15.937Z,22.14
2023-03-05T19:25:20.222Z,22.09
2023-03-05T19:30:23.394Z,22.07
2023-03-05T19:35:26.178Z,22.04
2023-03-05T19:40:30.669Z,22.01
2023-03-05T19:45:33.672Z,21.96
2023-03-05T19:50:36.464Z,21.94
2023-03-05T19:55:41.605Z,21.87
2023-03-05T20:00:44.372Z,21.82
2023-03-05T20:05:47.356Z,21.78
2023-03-05T20:10:51.553Z,21.75
2023-03-05T20:15:54.624Z,21.73
2023-03-05T20:21:01.627Z,21.66
2023-03-05T20:26:06.710Z,21.66
2023-03-05T20:31:09.850Z,21.58
2023-03-05T20:36:12.774Z,21.55
2023-03-05T20:41:17.651Z,21.50
2023-03-05T20:46:21.305Z,21.46
2023-03-05T20:51:24.779Z,21.40
2023-03-05T20:56:29.164Z,21.41
2023-03-05T21:01:32.928Z,21.39
2023-03-05T21:06:35.903Z,21.34
2023-03-05T21:11:40.068Z,21.32
2023-03-05T21:16:42.932Z,21.27
2023-03-05T21:21:46.116Z,21.22
2023-03-05T21:26:50.565Z,21.27
2023-03-05T21:31:53.343Z,21.23
2023-03-05T21:36:56.295Z,21.26
2023-03-05T21:42:00.508Z,21.24
2023-03-05T21:47:03.235Z,21.26
2023-03-05T21:52:09.232Z,21.22
2023-03-05T21:57:13.534Z,21.22
2023-03-05T22:02:17.349Z,21.19
2023-03-05T22:07:20.230Z,21.18
2023-03-05T22:12:39.154Z,21.03
2023-03-05T22:17:42.039Z,21.11
2023-03-05T22:22:44.780Z,21.12
2023-03-05T22:27:48.919Z,21.21
2023-03-05T22:32:51.715Z,21.21
2023-03-05T22:37:54.491Z,21.22
2023-03-05T22:42:58.718Z,21.21
2023-03-05T22:48:01.459Z,21.18
2023-03-05T22:53:04.253Z,21.17
2023-03-05T22:58:08.390Z,21.12
2023-03-05T23:03:11.160Z,21.14
2023-03-05T23:08:13.909Z,21.16
2023-03-05T23:13:18.289Z,21.18
2023-03-05T23:18:21.243Z,21.17
2023-03-05T23:23:24.102Z,21.15
2023-03-05T23:28:28.253Z,21.11
2023-03-05T23:33:31.169Z,21.05
2023-03-05T23:38:34.918Z,21.07
2023-03-05T23:43:39.138Z,21.01
2023-03-05T23:48:41.997Z,20.96
2023-03-05T23:53:44.733Z,20.91
2023-03-05T23:58:48.848Z,20.82
